Time;durP1;ratioP1;P1;durP2;ratioP2;P2;SDS_P1;SDS_P2;PMS_P1;PMS_P2;Temp;Humidity;BMP_temperature;BMP_pressure;BME280_temperature;BME280_humidity;BME280_pressure;Samples;Min_cycle;Max_cycle;Signal;HPM_P1;HPM_P2
2022/07/06 00:00:33;;;;;;;3.00;1.73;;;;;;;17.50;90.72;100650.50;5037527;28;20048;-67
2022/07/06 00:02:58;;;;;;;2.47;1.55;;;;;;;17.49;92.16;100657.72;5034526;28;20029;-67
2022/07/06 00:05:24;;;;;;;4.82;1.80;;;;;;;17.48;92.24;100661.34;5041382;28;20032;-67
2022/07/06 00:07:49;;;;;;;4.10;2.10;;;;;;;17.46;92.11;100668.59;5042713;28;20036;-67
2022/07/06 00:10:15;;;;;;;3.75;2.22;;;;;;;17.47;92.72;100664.09;5043013;28;20078;-68
2022/07/06 00:12:40;;;;;;;3.28;1.80;;;;;;;17.49;92.32;100667.59;5039463;28;20017;-68
2022/07/06 00:15:06;;;;;;;3.08;1.92;;;;;;;17.48;92.45;100672.09;5029732;28;20036;-67
2022/07/06 00:17:31;;;;;;;2.33;1.77;;;;;;;17.35;92.01;100670.09;5051844;28;20056;-67
2022/07/06 00:19:57;;;;;;;2.83;1.70;;;;;;;17.33;92.08;100680.88;5064751;28;20035;-67
2022/07/06 00:22:22;;;;;;;5.95;2.10;;;;;;;17.28;93.45;100680.25;5051804;28;20158;-68
2022/07/06 00:24:48;;;;;;;2.50;1.70;;;;;;;17.23;93.92;100676.94;5051655;28;20021;-67
2022/07/06 00:27:13;;;;;;;3.20;1.80;;;;;;;17.23;94.13;100676.94;5050033;28;20115;-67
2022/07/06 00:29:43;;;;;;;4.00;1.90;;;;;;;17.22;93.89;100680.56;5051696;28;20087;-67
2022/07/06 00:32:09;;;;;;;3.60;1.75;;;;;;;17.21;93.45;100677.94;5052043;28;20400;-68
2022/07/06 00:34:35;;;;;;;3.33;2.00;;;;;;;17.17;93.90;100681.72;5051174;28;20033;-68
2022/07/06 00:37:00;;;;;;;3.92;1.50;;;;;;;17.10;93.88;100681.16;5049261;28;20029;-67
2022/07/06 00:39:28;;;;;;;3.28;1.75;;;;;;;17.05;94.83;100678.69;5051989;28;20033;-67
2022/07/06 00:41:55;;;;;;;3.70;1.95;;;;;;;17.06;94.93;100690.31;5051489;28;20079;-67
2022/07/06 00:44:20;;;;;;;2.42;1.75;;;;;;;17.09;95.52;100691.06;5037183;28;20081;-67
2022/07/06 00:46:46;;;;;;;3.28;2.17;;;;;;;17.08;95.44;100699.19;5051670;28;20103;-67
2022/07/06 00:50:13;;;;;;;3.38;1.88;;;;;;;17.09;96.27;100692.84;5050527;28;20021;-67
2022/07/06 00:51:58;;;;;;;4.20;2.05;;;;;;;17.07;96.55;100697.44;5029511;28;20523;-67
2022/07/06 00:54:23;;;;;;;2.80;1.92;;;;;;;17.10;97.05;100699.97;5042039;28;20028;-68
2022/07/06 00:56:49;;;;;;;4.25;2.05;;;;;;;17.03;97.61;100685.09;5048387;28;20427;-67
2022/07/06 00:59:14;;;;;;;5.85;2.15;;;;;;;17.08;97.95;100699.19;5048477;28;20013;-67
2022/07/06 01:01:40;;;;;;;3.30;2.10;;;;;;;17.08;97.74;100704.56;5049769;28;20036;-67
2022/07/06 01:04:05;;;;;;;4.30;1.85;;;;;;;17.03;98.22;100702.06;5049278;28;20028;-67
2022/07/06 01:06:30;;;;;;;3.40;2.38;;;;;;;16.96;98.59;100697.09;5049433;28;20024;-67
2022/07/06 01:08:57;;;;;;;2.88;1.92;;;;;;;16.93;99.09;100689.16;5049305;28;20508;-67
2022/07/06 01:11:22;;;;;;;3.05;2.05;;;;;;;16.80;98.61;100677.25;5047025;28;20028;-67
2022/07/06 01:13:48;;;;;;;4.85;2.10;;;;;;;16.82;99.35;100692.34;5050162;28;20021;-68
2022/07/06 01:16:13;;;;;;;3.47;2.10;;;;;;;16.82;99.37;100688.78;5051600;28;20025;-68
2022/07/06 01:18:40;;;;;;;2.95;2.10;;;;;;;16.85;100.00;100685.97;5070688;28;20488;-68
2022/07/06 01:21:08;;;;;;;4.72;2.22;;;;;;;16.82;100.00;100691.47;5054794;28;20020;-68
2022/07/06 01:23:39;;;;;;;3.40;2.50;;;;;;;16.78;100.00;100688.09;5051197;28;20042;-67
2022/07/06 01:26:04;;;;;;;3.30;2.25;;;;;;;16.79;100.00;100675.50;5043165;28;20021;-68
2022/07/06 01:28:30;;;;;;;2.97;2.15;;;;;;;16.82;100.00;100686.09;5050341;28;20044;-68
2022/07/06 01:30:55;;;;;;;5.32;2.47;;;;;;;16.79;100.00;100684.44;5050885;28;20033;-68
2022/07/06 01:33:21;;;;;;;4.53;3.17;;;;;;;16.81;100.00;100679.88;5051268;28;20560;-68
2022/07/06 01:35:46;;;;;;;4.38;2.17;;;;;;;16.78;100.00;100690.78;5051310;28;20111;-68
2022/07/06 01:38:12;;;;;;;3.85;2.15;;;;;;;16.77;100.00;100688.16;5032931;28;20016;-68
2022/07/06 01:40:37;;;;;;;4.47;1.92;;;;;;;16.73;100.00;100689.22;5030893;28;20412;-68
2022/07/06 01:43:02;;;;;;;4.00;2.40;;;;;;;16.69;100.00;100690.31;5031051;28;20036;-68
2022/07/06 01:45:31;;;;;;;4.25;2.75;;;;;;;16.68;100.00;100699.31;5030911;28;20473;-68
2022/07/06 01:47:56;;;;;;;5.28;2.33;;;;;;;16.63;100.00;100694.19;5042375;28;20037;-68
2022/07/06 01:50:22;;;;;;;3.92;2.47;;;;;;;16.61;100.00;100704.13;5050551;28;20469;-68
2022/07/06 01:52:47;;;;;;;4.43;2.45;;;;;;;16.56;100.00;100689.13;5050998;28;20100;-68
2022/07/06 01:55:12;;;;;;;6.10;2.60;;;;;;;16.53;100.00;100683.91;5050730;28;20032;-68
2022/07/06 01:57:38;;;;;;;3.80;2.40;;;;;;;16.51;100.00;100691.16;5050731;28;20484;-68
2022/07/06 02:00:06;;;;;;;3.33;2.35;;;;;;;16.48;100.00;100691.31;5049631;28;20029;-68
2022/07/06 02:02:32;;;;;;;4.07;2.28;;;;;;;16.46;100.00;100687.81;5049308;28;20548;-68
2022/07/06 02:04:57;;;;;;;3.30;2.15;;;;;;;16.44;100.00;100692.38;5049138;28;20044;-68
2022/07/06 02:07:23;;;;;;;3.20;2.40;;;;;;;16.42;100.00;100702.31;5033438;28;20365;-68
2022/07/06 02:09:48;;;;;;;4.03;2.50;;;;;;;16.42;100.00;100691.56;5029800;28;20030;-68
2022/07/06 02:12:13;;;;;;;2.78;2.15;;;;;;;16.37;100.00;100699.84;5030278;28;20117;-68
2022/07/06 02:14:39;;;;;;;3.40;1.92;;;;;;;16.30;100.00;100701.03;5029183;28;20052;-68
2022/07/06 02:17:04;;;;;;;3.97;2.33;;;;;;;16.33;100.00;100702.72;5043574;28;20028;-67
2022/07/06 02:19:30;;;;;;;4.10;2.47;;;;;;;16.32;100.00;100701.84;5065619;28;20456;-68
2022/07/06 02:21:55;;;;;;;5.05;2.55;;;;;;;16.29;100.00;100703.81;5048728;28;20079;-68
2022/07/06 02:24:20;;;;;;;5.65;2.30;;;;;;;16.30;100.00;100700.16;5047610;28;20389;-68
2022/07/06 02:26:46;;;;;;;6.15;2.50;;;;;;;16.27;100.00;100703.00;5049870;28;20060;-68
2022/07/06 02:29:11;;;;;;;5.05;2.35;;;;;;;16.28;100.00;100704.72;5040439;28;20152;-68
2022/07/06 02:31:36;;;;;;;2.90;2.40;;;;;;;16.25;100.00;100702.19;5032525;28;20499;-68
2022/07/06 02:34:02;;;;;;;3.53;2.45;;;;;;;16.24;100.00;100698.66;5033229;28;20017;-68
2022/07/06 02:36:27;;;;;;;4.00;2.33;;;;;;;16.20;100.00;100702.41;5049918;28;20025;-68
2022/07/06 02:38:53;;;;;;;3.90;2.80;;;;;;;16.15;100.00;100708.91;5052264;28;20039;-68
2022/07/06 02:41:18;;;;;;;5.65;2.88;;;;;;;16.13;100.00;100708.97;5054052;28;20036;-68
2022/07/06 02:43:44;;;;;;;7.20;2.83;;;;;;;16.13;100.00;100705.44;5053702;28;20033;-68
2022/07/06 02:46:09;;;;;;;4.00;2.60;;;;;;;16.05;100.00;100707.56;5053619;28;20032;-68
2022/07/06 02:48:34;;;;;;;4.28;2.90;;;;;;;15.94;100.00;100693.75;5053808;28;20017;-68
2022/07/06 02:51:00;;;;;;;5.72;2.60;;;;;;;16.00;100.00;100709.56;5053719;28;20074;-68
2022/07/06 02:53:25;;;;;;;5.25;2.90;;;;;;;15.96;100.00;100708.84;5053937;28;20048;-68
2022/07/06 02:55:51;;;;;;;4.45;2.70;;;;;;;15.90;100.00;100713.63;5053388;28;20028;-68
2022/07/06 02:58:16;;;;;;;4.20;2.78;;;;;;;15.87;100.00;100714.59;5035666;28;20035;-68
2022/07/06 03:00:41;;;;;;;4.95;3.17;;;;;;;15.87;100.00;100729.81;5053464;28;20027;-68
2022/07/06 03:03:07;;;;;;;4.65;3.30;;;;;;;15.86;100.00;100728.97;5053606;28;20033;-68
2022/07/06 03:05:32;;;;;;;11.05;2.78;;;;;;;15.80;100.00;100719.38;5053300;28;20044;-68
2022/07/06 03:07:58;;;;;;;5.25;3.28;;;;;;;15.85;100.00;100737.94;5053027;28;20036;-68
2022/07/06 03:10:23;;;;;;;5.93;3.05;;;;;;;15.79;100.00;100728.38;5052418;28;20021;-68
2022/07/06 03:12:48;;;;;;;6.07;2.75;;;;;;;15.83;100.00;100746.06;5051702;28;20507;-67
2022/07/06 03:15:14;;;;;;;5.43;2.53;;;;;;;15.82;100.00;100744.31;5051965;28;20121;-68
2022/07/06 03:17:39;;;;;;;4.20;2.92;;;;;;;15.73;100.00;100749.22;5063806;28;20037;-68
2022/07/06 03:20:06;;;;;;;5.45;2.85;;;;;;;15.72;100.00;100745.66;5041635;28;20026;-68
2022/07/06 03:22:31;;;;;;;4.55;3.25;;;;;;;15.71;100.00;100741.22;5033143;28;20060;-68
2022/07/06 03:24:57;;;;;;;4.63;2.80;;;;;;;15.72;100.00;100745.66;5049845;28;20025;-68
2022/07/06 03:27:22;;;;;;;5.68;3.13;;;;;;;15.68;100.00;100738.66;5053188;28;20427;-68
2022/07/06 03:29:47;;;;;;;4.45;2.72;;;;;;;15.66;100.00;100743.22;5052801;28;20522;-68
2022/07/06 03:32:13;;;;;;;6.55;3.28;;;;;;;15.58;100.00;100734.59;5051708;28;20108;-68
2022/07/06 03:34:38;;;;;;;4.53;3.10;;;;;;;15.61;100.00;100741.66;5051595;28;20461;-68
2022/07/06 03:37:04;;;;;;;3.72;2.55;;;;;;;15.59;100.00;100741.72;5051355;28;20033;-67
2022/07/06 03:39:29;;;;;;;10.45;3.15;;;;;;;15.60;100.00;100743.47;5051203;28;20036;-67
2022/07/06 03:41:54;;;;;;;4.03;2.90;;;;;;;15.59;100.00;100747.09;5052314;28;20581;-67
2022/07/06 03:44:20;;;;;;;4.22;2.63;;;;;;;15.54;100.00;100735.69;5052149;28;20025;-67
2022/07/06 03:46:45;;;;;;;7.68;2.90;;;;;;;15.55;100.00;100739.25;5052630;28;20021;-68
2022/07/06 03:49:11;;;;;;;5.10;2.60;;;;;;;15.53;100.00;100747.31;5052830;28;20093;-68
2022/07/06 03:51:37;;;;;;;5.80;2.80;;;;;;;15.52;100.00;100745.59;5052571;28;20628;-68
2022/07/06 03:54:03;;;;;;;5.63;3.35;;;;;;;15.54;100.00;100746.41;5052472;28;20045;-68
2022/07/06 03:56:28;;;;;;;5.07;2.83;;;;;;;15.52;100.00;100742.91;5052599;28;20063;-68
2022/07/06 03:58:55;;;;;;;5.18;3.33;;;;;;;15.53;100.00;100741.97;5052148;28;20028;-68
2022/07/06 04:01:20;;;;;;;7.60;3.28;;;;;;;15.55;100.00;100742.78;5052175;28;20086;-68
2022/07/06 04:03:46;;;;;;;5.18;3.60;;;;;;;15.61;100.00;100747.91;5052450;28;20033;-68
2022/07/06 04:06:11;;;;;;;11.25;3.15;;;;;;;15.67;100.00;100744.97;5034347;28;20029;-68
2022/07/06 04:08:37;;;;;;;7.78;3.15;;;;;;;15.68;100.00;100746.69;5052502;28;20590;-68
2022/07/06 04:11:02;;;;;;;4.70;2.90;;;;;;;15.66;100.00;100743.22;5050303;28;20492;-68
2022/07/06 04:13:28;;;;;;;5.57;2.97;;;;;;;15.70;100.00;100749.31;5033472;28;20036;-68
2022/07/06 04:15:53;;;;;;;6.45;3.55;;;;;;;15.67;100.00;100755.69;5049107;28;20025;-69
2022/07/06 04:18:19;;;;;;;6.20;4.15;;;;;;;15.67;100.00;100752.13;5069550;28;20051;-69
2022/07/06 04:20:44;;;;;;;5.78;3.30;;;;;;;15.49;100.00;100716.22;5058634;28;20029;-69
2022/07/06 04:23:10;;;;;;;8.90;3.22;;;;;;;15.62;100.00;100736.22;5051867;28;20052;-67
2022/07/06 04:25:35;;;;;;;6.88;3.72;;;;;;;15.73;100.00;100755.41;5034077;28;20029;-67
2022/07/06 04:28:01;;;;;;;4.38;3.10;;;;;;;15.83;100.00;100755.94;5051591;28;20467;-67
2022/07/06 04:30:27;;;;;;;5.80;3.75;;;;;;;15.90;100.00;100757.41;5049727;28;20116;-67
2022/07/06 04:32:52;;;;;;;7.22;4.28;;;;;;;15.98;100.00;100762.47;5050210;28;20126;-67
2022/07/06 04:35:18;;;;;;;7.70;3.47;;;;;;;16.04;100.00;100760.38;5049709;28;20060;-67
2022/07/06 04:37:45;;;;;;;5.45;3.33;;;;;;;16.16;100.00;100761.66;5046014;28;20514;-67
2022/07/06 04:40:11;;;;;;;7.63;3.42;;;;;;;16.22;100.00;100754.22;5049926;28;20376;-67
2022/07/06 04:42:37;;;;;;;5.57;3.63;;;;;;;16.24;100.00;100767.56;5041792;28;20086;-67
2022/07/06 04:45:04;;;;;;;4.88;3.78;;;;;;;16.31;100.00;100763.69;5031224;28;20031;-67
2022/07/06 04:47:29;;;;;;;5.68;3.53;;;;;;;16.39;100.00;100761.53;5039241;28;20032;-69
2022/07/06 04:49:55;;;;;;;8.35;3.42;;;;;;;16.53;100.00;100767.16;5051139;28;20487;-69
2022/07/06 04:52:20;;;;;;;8.45;4.00;;;;;;;16.74;100.00;100767.06;5051477;28;20083;-68
2022/07/06 04:54:45;;;;;;;6.10;4.03;;;;;;;16.88;100.00;100766.44;5051493;28;20028;-68
2022/07/06 04:57:11;;;;;;;7.63;4.38;;;;;;;16.96;100.00;100773.22;5051285;28;20108;-68
2022/07/06 04:59:36;;;;;;;9.82;3.83;;;;;;;17.09;100.00;100770.81;5051188;28;20032;-68
2022/07/06 05:02:01;;;;;;;10.65;3.78;;;;;;;17.18;100.00;100753.38;5051370;28;20598;-68
2022/07/06 05:04:27;;;;;;;10.77;3.85;;;;;;;17.40;100.00;100771.09;5051440;28;20032;-68
2022/07/06 05:06:55;;;;;;;6.00;3.65;;;;;;;17.52;99.87;100775.03;5051065;28;20162;-68
2022/07/06 05:09:20;;;;;;;12.23;4.65;;;;;;;17.64;98.73;100774.44;5051213;28;20031;-68
2022/07/06 05:11:46;;;;;;;7.72;3.88;;;;;;;17.75;97.91;100778.34;5036439;28;20033;-68
2022/07/06 05:14:11;;;;;;;5.82;3.97;;;;;;;17.91;97.13;100783.81;5031429;28;20751;-69
2022/07/06 05:16:37;;;;;;;8.18;4.25;;;;;;;18.08;95.74;100782.03;5038540;28;20115;-68
2022/07/06 05:19:02;;;;;;;5.80;3.47;;;;;;;18.33;94.18;100776.25;5071036;28;20047;-68
2022/07/06 05:21:28;;;;;;;7.22;3.60;;;;;;;18.50;91.88;100772.69;5051881;28;20633;-68
2022/07/06 05:23:53;;;;;;;7.60;3.80;;;;;;;18.61;89.62;100775.69;5045934;28;20465;-68
2022/07/06 05:26:18;;;;;;;4.55;3.22;;;;;;;18.75;89.30;100779.38;5032184;28;20033;-68
2022/07/06 05:28:44;;;;;;;11.20;3.75;;;;;;;18.89;88.75;100775.94;5051113;28;20079;-68
2022/07/06 05:31:09;;;;;;;7.78;3.40;;;;;;;19.02;88.05;100782.41;5039579;28;20071;-68
2022/07/06 05:33:34;;;;;;;6.32;3.60;;;;;;;19.11;86.83;100784.63;5050850;28;20021;-68
2022/07/06 05:36:00;;;;;;;5.90;3.47;;;;;;;19.20;84.90;100789.47;5050609;28;20060;-68
2022/07/06 05:38:25;;;;;;;6.28;2.95;;;;;;;19.34;83.94;100786.94;5049276;28;20033;-68
2022/07/06 05:40:51;;;;;;;3.97;2.78;;;;;;;19.43;83.84;100789.97;5048993;28;20120;-69
2022/07/06 05:43:17;;;;;;;4.20;3.35;;;;;;;19.56;83.94;100784.75;5048842;28;20029;-68
2022/07/06 05:45:43;;;;;;;5.90;2.70;;;;;;;19.63;83.65;100787.03;5049180;28;20055;-68
2022/07/06 05:50:52;;;;;;;4.85;3.15;;;;;;;19.87;81.90;100800.91;5049182;28;20039;-69
2022/07/06 05:53:17;;;;;;;5.13;2.72;;;;;;;20.02;81.14;100800.03;5050721;28;20389;-68
2022/07/06 05:55:43;;;;;;;7.28;3.17;;;;;;;20.16;80.55;100797.41;5049489;28;20142;-68
2022/07/06 05:58:08;;;;;;;5.63;2.90;;;;;;;20.30;78.50;100796.56;5049299;28;20029;-68
2022/07/06 06:00:34;;;;;;;3.47;2.28;;;;;;;20.41;78.43;100797.66;5050820;28;20040;-68
2022/07/06 06:03:00;;;;;;;6.88;2.88;;;;;;;20.45;73.39;100803.75;5054445;28;20017;-68
2022/07/06 06:05:25;;;;;;;6.63;2.85;;;;;;;20.60;72.95;100801.00;5054528;28;20029;-69
2022/07/06 06:07:52;;;;;;;4.63;2.35;;;;;;;20.73;71.81;100804.69;5041962;28;20032;-68
2022/07/06 06:10:18;;;;;;;4.15;2.10;;;;;;;20.92;71.13;100805.28;5034553;28;20083;-68
2022/07/06 06:12:45;;;;;;;4.18;1.95;;;;;;;20.84;69.64;100806.72;5047292;28;20087;-69
2022/07/06 06:15:11;;;;;;;4.53;2.40;;;;;;;20.65;68.61;100808.81;5054531;28;20136;-68
2022/07/06 06:17:37;;;;;;;4.97;2.30;;;;;;;20.49;68.38;100805.31;5066214;28;20522;-68
2022/07/06 06:20:06;;;;;;;7.18;2.50;;;;;;;20.59;68.51;100810.06;5066857;28;20033;-68
2022/07/06 06:22:32;;;;;;;3.53;2.25;;;;;;;20.68;68.01;100806.81;5054243;28;20036;-69
2022/07/06 06:24:57;;;;;;;1.98;1.77;;;;;;;20.92;70.46;100813.38;5054357;28;20482;-69
2022/07/06 06:27:22;;;;;;;4.15;1.88;;;;;;;21.10;65.98;100807.84;5053562;28;20060;-69
2022/07/06 06:29:48;;;;;;;7.03;2.22;;;;;;;21.33;66.90;100807.25;5054419;28;20108;-69
2022/07/06 06:32:13;;;;;;;3.28;2.13;;;;;;;21.49;63.02;100806.16;5054097;28;20054;-69
2022/07/06 06:34:40;;;;;;;5.00;2.30;;;;;;;21.56;62.46;100812.03;5050508;28;20033;-69
2022/07/06 06:37:05;;;;;;;4.10;1.80;;;;;;;21.55;62.96;100804.88;5050589;28;20484;-69
2022/07/06 06:39:31;;;;;;;4.07;1.75;;;;;;;21.66;61.57;100807.78;5053835;28;20024;-69
2022/07/06 06:41:57;;;;;;;6.60;2.35;;;;;;;21.61;62.24;100799.06;5051758;28;20083;-69
2022/07/06 06:44:23;;;;;;;6.97;2.53;;;;;;;21.68;61.23;100805.84;5043833;28;20499;-70
2022/07/06 06:46:54;;;;;;;8.45;2.20;;;;;;;21.41;62.02;100813.03;5044716;28;20025;-70
2022/07/06 06:49:20;;;;;;;4.05;2.10;;;;;;;21.32;61.58;100813.59;5044941;28;20416;-70
2022/07/06 06:51:45;;;;;;;3.22;1.85;;;;;;;21.39;61.78;100813.13;5046477;28;20020;-69
2022/07/06 06:54:10;;;;;;;7.13;2.10;;;;;;;21.68;63.58;100816.66;5045192;28;20044;-69
2022/07/06 06:56:36;;;;;;;3.80;1.60;;;;;;;21.94;62.96;100821.25;5043417;28;20037;-68
2022/07/06 06:59:02;;;;;;;3.50;1.90;;;;;;;22.00;60.00;100813.59;5043413;28;20380;-68
2022/07/06 07:01:28;;;;;;;3.97;2.40;;;;;;;22.07;59.28;100820.31;5044797;28;20040;-68
2022/07/06 07:03:55;;;;;;;3.35;1.60;;;;;;;22.26;58.85;100814.53;5049062;28;20052;-68
2022/07/06 07:06:20;;;;;;;4.93;1.83;;;;;;;22.41;60.53;100809.91;5041016;28;20503;-68
2022/07/06 07:08:46;;;;;;;4.30;2.03;;;;;;;22.76;61.05;100809.25;5038898;28;20026;-68
2022/07/06 07:11:11;;;;;;;3.40;1.65;;;;;;;22.85;59.49;100808.59;5042903;28;20029;-68
2022/07/06 07:13:37;;;;;;;2.95;1.77;;;;;;;22.97;58.20;100815.88;5045439;28;20029;-68
2022/07/06 07:16:02;;;;;;;4.32;1.90;;;;;;;23.12;56.48;100816.63;5045167;28;20485;-68
2022/07/06 07:18:27;;;;;;;5.15;2.13;;;;;;;23.24;56.23;100813.03;5043798;28;20041;-68
2022/07/06 07:20:53;;;;;;;6.50;2.70;;;;;;;23.54;56.07;100816.28;5043811;28;20028;-68
2022/07/06 07:23:18;;;;;;;3.30;1.70;;;;;;;23.64;56.07;100806.44;5043371;28;20471;-68
2022/07/06 07:25:44;;;;;;;3.40;1.67;;;;;;;23.79;54.84;100812.63;5040050;28;20100;-68
2022/07/06 07:28:10;;;;;;;4.68;1.92;;;;;;;24.07;57.78;100818.59;5042810;28;20031;-68
2022/07/06 07:30:35;;;;;;;2.47;1.35;;;;;;;24.29;55.61;100813.28;5035288;28;20048;-68
2022/07/06 07:33:00;;;;;;;3.50;2.05;;;;;;;24.48;51.01;100808.16;5049387;28;20491;-69
2022/07/06 07:35:27;;;;;;;3.40;1.40;;;;;;;24.62;53.36;100817.97;5051219;28;20074;-69
2022/07/06 07:37:52;;;;;;;1.88;1.45;;;;;;;24.65;51.97;100794.09;5052311;28;20025;-69
2022/07/06 07:40:18;;;;;;;4.05;1.90;;;;;;;24.79;52.11;100808.50;5052408;28;20027;-69
2022/07/06 07:42:44;;;;;;;3.78;1.60;;;;;;;24.72;49.59;100808.13;5052700;28;20048;-69
2022/07/06 07:45:10;;;;;;;5.25;1.90;;;;;;;24.89;51.00;100806.81;5052486;28;20029;-68
2022/07/06 07:47:36;;;;;;;1.92;1.40;;;;;;;24.91;49.92;100816.56;5045492;28;20044;-69
2022/07/06 07:50:01;;;;;;;5.93;2.10;;;;;;;25.06;50.61;100814.50;5041184;28;20108;-69
2022/07/06 07:52:27;;;;;;;3.13;1.70;;;;;;;25.37;51.49;100811.94;5040247;28;20021;-69
2022/07/06 07:54:52;;;;;;;3.28;1.80;;;;;;;25.48;47.88;100814.66;5040186;28;20035;-69
2022/07/06 07:57:17;;;;;;;4.03;1.70;;;;;;;25.45;50.33;100811.31;5041499;28;20028;-68
2022/07/06 07:59:43;;;;;;;4.63;1.90;;;;;;;25.23;47.63;100812.16;5040534;28;20036;-69
2022/07/06 08:02:08;;;;;;;2.50;1.88;;;;;;;25.34;49.55;100814.00;5047250;28;20032;-69
2022/07/06 08:04:34;;;;;;;4.00;2.20;;;;;;;25.41;47.84;100812.56;5050604;28;20500;-69
2022/07/06 08:06:59;;;;;;;3.75;1.70;;;;;;;25.67;48.44;100811.28;5045975;28;20502;-67
2022/07/06 08:09:25;;;;;;;3.78;1.88;;;;;;;26.09;46.08;100813.22;5049386;28;20075;-68
2022/07/06 08:11:50;;;;;;;4.40;1.90;;;;;;;26.58;47.24;100818.94;5050180;28;20387;-68
2022/07/06 08:14:16;;;;;;;3.90;2.00;;;;;;;26.82;45.34;100818.75;5034766;28;20230;-68
2022/07/06 08:16:42;;;;;;;4.00;1.92;;;;;;;26.96;44.20;100818.38;5053262;28;20020;-68
2022/07/06 08:19:08;;;;;;;2.65;1.83;;;;;;;26.95;45.39;100822.13;5069287;28;20357;-68
2022/07/06 08:21:33;;;;;;;2.85;1.85;;;;;;;26.74;44.94;100815.78;5050089;28;20029;-68
2022/07/06 08:24:00;;;;;;;4.35;1.90;;;;;;;27.00;47.87;100811.66;5042614;28;20029;-68
2022/07/06 08:26:26;;;;;;;4.10;1.67;;;;;;;27.18;45.46;100793.66;5042012;28;20033;-68
2022/07/06 08:28:51;;;;;;;4.80;1.88;;;;;;;27.07;45.35;100813.72;5029880;28;20028;-68
2022/07/06 08:31:17;;;;;;;4.28;1.65;;;;;;;27.00;44.39;100808.94;5049751;28;20027;-68
2022/07/06 08:33:43;;;;;;;4.63;1.80;;;;;;;27.17;45.14;100808.28;5037293;28;20041;-68
2022/07/06 08:36:08;;;;;;;3.95;1.88;;;;;;;27.49;46.29;100803.59;5029713;28;20377;-68
2022/07/06 08:38:33;;;;;;;5.97;1.95;;;;;;;27.60;43.00;100800.75;5028878;28;20044;-68
2022/07/06 08:40:59;;;;;;;4.53;1.80;;;;;;;27.57;44.52;100811.09;5033610;28;20028;-68
2022/07/06 08:43:25;;;;;;;4.03;1.73;;;;;;;27.36;44.31;100808.44;5032513;28;20499;-67
2022/07/06 08:45:53;;;;;;;3.55;1.65;;;;;;;27.46;44.08;100820.28;5033454;28;20120;-67
2022/07/06 08:48:23;;;;;;;6.20;2.10;;;;;;;27.49;44.63;100808.19;5047969;28;20033;-67
2022/07/06 08:50:49;;;;;;;3.40;1.92;;;;;;;27.26;44.58;100807.47;5048671;28;20055;-67
2022/07/06 08:53:17;;;;;;;5.35;1.92;;;;;;;27.35;45.71;100806.69;5047813;28;20052;-67
2022/07/06 08:55:42;;;;;;;6.15;2.17;;;;;;;27.30;42.82;100814.41;5042970;28;20033;-68
2022/07/06 08:58:08;;;;;;;4.28;1.80;;;;;;;27.52;44.60;100819.72;5027841;28;20033;-68
2022/07/06 09:00:34;;;;;;;5.60;1.75;;;;;;;27.66;44.18;100822.03;5041081;28;20039;-67
2022/07/06 09:03:00;;;;;;;3.22;1.80;;;;;;;27.79;43.66;100830.84;5047893;28;20504;-67
2022/07/06 09:05:28;;;;;;;3.58;1.85;;;;;;;27.95;45.17;100828.50;5047410;28;20107;-67
2022/07/06 09:07:53;;;;;;;3.83;2.10;;;;;;;28.40;44.22;100832.44;5045457;28;20025;-67
2022/07/06 09:10:21;;;;;;;3.08;1.67;;;;;;;28.41;45.14;100817.75;5044056;28;20044;-67
2022/07/06 09:12:47;;;;;;;3.08;1.70;;;;;;;28.79;42.71;100822.38;5048400;28;20025;-67
2022/07/06 09:15:12;;;;;;;6.65;2.28;;;;;;;28.88;42.85;100820.63;5030669;28;20394;-67
2022/07/06 09:17:39;;;;;;;2.25;1.80;;;;;;;28.83;42.54;100829.28;5058474;28;20062;-67
2022/07/06 09:20:10;;;;;;;6.20;1.77;;;;;;;28.87;42.96;100819.75;5036765;28;20033;-67
2022/07/06 09:22:37;;;;;;;5.95;1.95;;;;;;;29.18;43.56;100824.03;5048314;28;20111;-67
2022/07/06 09:25:15;;;;;;;5.65;2.05;;;;;;;29.14;41.04;100832.72;5047043;28;20039;-67
2022/07/06 09:27:47;;;;;;;3.75;1.73;;;;;;;29.13;42.82;100822.75;5039947;28;20025;-67
2022/07/06 09:30:14;;;;;;;3.78;1.77;;;;;;;29.51;41.11;100836.31;5044233;28;20025;-67
2022/07/06 09:32:45;;;;;;;3.80;1.70;;;;;;;29.58;40.18;100823.75;5038821;28;20070;-67
2022/07/06 09:35:22;;;;;;;3.78;1.60;;;;;;;29.01;42.12;100833.00;5041167;28;20028;-67
2022/07/06 09:38:00;;;;;;;4.97;2.42;;;;;;;28.74;42.07;100834.78;5044274;28;20052;-67
2022/07/06 09:40:25;;;;;;;3.80;1.60;;;;;;;29.26;42.90;100837.88;5034170;28;20043;-67
2022/07/06 09:42:50;;;;;;;4.25;2.00;;;;;;;29.38;40.15;100838.53;5044235;28;20465;-67
2022/07/06 09:45:21;;;;;;;4.18;2.08;;;;;;;29.46;41.88;100824.94;5038355;28;20063;-67
2022/07/06 09:47:49;;;;;;;4.20;1.88;;;;;;;29.63;40.51;100841.50;5045931;28;20098;-67
2022/07/06 09:50:17;;;;;;;4.45;1.92;;;;;;;30.01;40.14;100839.56;5038440;28;20053;-68
2022/07/06 09:52:54;;;;;;;5.30;1.67;;;;;;;30.34;40.05;100845.31;5043287;28;20025;-68
2022/07/06 09:55:21;;;;;;;3.38;2.05;;;;;;;29.80;39.14;100849.94;5041598;28;20075;-68
2022/07/06 09:57:55;;;;;;;3.42;1.70;;;;;;;28.90;41.98;100840.50;5040041;28;20407;-68
2022/07/06 10:00:20;;;;;;;4.97;1.73;;;;;;;28.93;42.25;100832.88;5039622;28;20053;-68
2022/07/06 10:02:48;;;;;;;3.78;1.65;;;;;;;29.33;42.44;100840.88;5040408;28;20072;-68
2022/07/06 10:05:17;;;;;;;2.50;1.48;;;;;;;29.55;42.00;100852.34;5039719;28;20146;-68
2022/07/06 10:07:46;;;;;;;3.20;1.70;;;;;;;29.83;40.36;100839.53;5040346;28;20017;-68
2022/07/06 10:10:11;;;;;;;4.25;1.65;;;;;;;30.35;40.95;100848.88;5040230;28;20024;-68
2022/07/06 10:12:40;;;;;;;3.17;1.58;;;;;;;30.38;42.14;100849.44;5037056;28;20416;-68
2022/07/06 10:15:06;;;;;;;4.35;1.90;;;;;;;30.34;40.04;100845.31;5040978;28;20021;-68
2022/07/06 10:17:32;;;;;;;3.88;1.75;;;;;;;30.71;40.29;100846.00;5038988;28;20043;-68
2022/07/06 10:19:58;;;;;;;4.70;1.67;;;;;;;30.83;38.74;100842.03;5041763;28;20029;-68
2022/07/06 10:22:24;;;;;;;5.57;1.80;;;;;;;30.09;39.80;100847.91;5034499;28;20496;-68
2022/07/06 10:24:50;;;;;;;3.80;1.77;;;;;;;29.80;39.70;100845.34;5047345;28;20043;-68
2022/07/06 10:27:16;;;;;;;4.97;2.10;;;;;;;29.92;40.62;100835.88;5032552;28;20036;-68
2022/07/06 10:29:42;;;;;;;2.35;1.58;;;;;;;29.89;40.00;100849.88;5043641;28;20472;-68
2022/07/06 10:32:08;;;;;;;3.83;1.88;;;;;;;29.40;39.64;100847.50;5052336;28;20112;-68
2022/07/06 10:34:36;;;;;;;2.67;1.67;;;;;;;29.19;40.63;100822.19;5052229;28;20025;-68
2022/07/06 10:37:02;;;;;;;4.25;1.88;;;;;;;29.14;42.16;100847.25;5051900;28;20549;-67
2022/07/06 10:42:41;;;;;;;4.15;1.60;;;;;;;29.75;41.10;100844.94;5051325;28;20518;-67
2022/07/06 10:45:07;;;;;;;3.80;1.77;;;;;;;30.60;40.25;100849.00;5045958;28;20021;-67
2022/07/06 10:47:34;;;;;;;4.10;1.80;;;;;;;30.52;38.84;100843.44;5050178;28;20488;-68
2022/07/06 10:50:00;;;;;;;3.65;1.92;;;;;;;30.40;39.43;100827.31;5047274;28;20377;-68
2022/07/06 10:52:47;;;;;;;2.83;1.58;;;;;;;30.79;38.49;100837.00;5051179;28;20074;-68
2022/07/06 10:55:29;;;;;;;2.40;1.58;;;;;;;31.18;36.55;100837.44;5041692;28;20048;-68
2022/07/06 10:57:55;;;;;;;3.00;1.67;;;;;;;31.05;36.65;100834.28;5031779;28;20061;-68
2022/07/06 11:00:21;;;;;;;2.42;1.40;;;;;;;30.68;37.21;100826.22;5036598;28;20436;-68
2022/07/06 11:02:46;;;;;;;2.20;1.48;;;;;;;31.24;37.40;100828.53;5051442;28;20490;-68
2022/07/06 11:05:41;;;;;;;4.25;3.38;;;;;;;31.60;38.59;100835.66;5051214;28;20082;-68
2022/07/06 11:08:10;;;;;;;3.72;1.70;;;;;;;30.97;37.91;100828.72;5049298;28;20028;-68
2022/07/06 11:10:48;;;;;;;3.15;1.45;;;;;;;29.95;39.87;100832.81;5050744;28;20024;-68
2022/07/06 11:13:27;;;;;;;3.45;1.48;;;;;;;30.20;38.41;100825.72;5048005;28;20028;-68
2022/07/06 11:16:01;;;;;;;3.97;1.40;;;;;;;31.06;37.29;100819.50;5035404;28;20079;-68
2022/07/06 11:18:27;;;;;;;2.95;1.58;;;;;;;31.67;36.03;100825.72;5063697;28;20483;-68
2022/07/06 11:21:19;;;;;;;2.17;1.50;;;;;;;31.81;34.86;100825.94;5046347;28;20094;-68
2022/07/06 11:23:49;;;;;;;4.07;2.10;;;;;;;31.30;36.39;100811.41;5050629;28;20036;-68